Time;durP1;ratioP1;P1;durP2;ratioP2;P2;SDS_P1;SDS_P2;PMS_P1;PMS_P2;Temp;Humidity;BMP_temperature;BMP_pressure;BME280_temperature;BME280_humidity;BME280_pressure;Samples;Min_cycle;Max_cycle;Signal;HPM_P1;HPM_P2
2023/05/10 00:01:46;;;;;;;1999.90;999.90;;;11.20;99.90;;;;;;5089754;28;20931;-72
2023/05/10 00:04:12;;;;;;;1999.90;999.90;;;11.10;99.90;;;;;;5090608;28;20426;-72
2023/05/10 00:06:39;;;;;;;1999.90;999.90;;;11.20;99.90;;;;;;5090689;28;20426;-70
2023/05/10 00:09:06;;;;;;;1999.90;999.90;;;11.30;99.90;;;;;;5089776;28;20450;-72
2023/05/10 00:11:34;;;;;;;1999.90;999.90;;;11.30;99.90;;;;;;5088676;28;20494;-71
2023/05/10 00:14:01;;;;;;;1999.90;999.90;;;11.30;99.90;;;;;;5090307;28;20434;-68
2023/05/10 00:16:27;;;;;;;1999.90;999.90;;;11.40;99.90;;;;;;5090728;28;20515;-71
2023/05/10 00:18:54;;;;;;;1999.90;999.90;;;11.40;99.90;;;;;;5088920;28;20992;-72
2023/05/10 00:21:21;;;;;;;1999.90;999.90;;;11.30;99.90;;;;;;5089335;28;20435;-71
2023/05/10 00:23:47;;;;;;;1999.90;999.90;;;11.30;99.90;;;;;;5090563;28;20921;-71
2023/05/10 00:26:14;;;;;;;1999.90;999.90;;;11.40;99.90;;;;;;5090485;28;20990;-72
2023/05/10 00:28:42;;;;;;;1999.90;999.90;;;11.30;99.90;;;;;;5089014;28;20425;-72
2023/05/10 00:31:09;;;;;;;1999.90;999.90;;;11.30;99.90;;;;;;5084651;28;20908;-71
2023/05/10 00:33:35;;;;;;;1999.90;999.90;;;11.30;99.90;;;;;;5085064;28;20433;-71
2023/05/10 00:36:02;;;;;;;1999.90;999.90;;;11.30;99.90;;;;;;5090635;28;20487;-72
2023/05/10 00:38:29;;;;;;;1999.90;999.90;;;11.40;99.90;;;;;;5090117;28;20422;-70
2023/05/10 00:40:56;;;;;;;1999.90;999.90;;;11.40;99.90;;;;;;5088349;28;20428;-72
2023/05/10 00:43:22;;;;;;;1999.90;999.90;;;11.40;99.90;;;;;;5088127;28;20479;-71
2023/05/10 00:45:50;;;;;;;1999.90;999.90;;;11.30;99.90;;;;;;5089900;28;20426;-71
2023/05/10 00:48:17;;;;;;;1999.90;999.90;;;11.20;99.90;;;;;;5089735;28;20487;-72
2023/05/10 00:50:44;;;;;;;1999.90;999.90;;;11.20;99.90;;;;;;5089373;28;20429;-71
2023/05/10 00:53:11;;;;;;;1999.90;999.90;;;11.20;99.90;;;;;;5087249;28;20585;-72
2023/05/10 00:55:38;;;;;;;1999.90;999.90;;;11.20;99.90;;;;;;5087655;28;20434;-72
2023/05/10 00:58:05;;;;;;;1999.90;999.90;;;11.20;99.90;;;;;;5089710;28;20430;-72
2023/05/10 01:00:34;;;;;;;1999.90;999.90;;;11.20;99.90;;;;;;5088388;28;20960;-72
2023/05/10 01:03:02;;;;;;;1999.90;999.90;;;11.20;99.90;;;;;;5088040;28;20479;-72
2023/05/10 01:05:28;;;;;;;1999.90;999.90;;;11.20;99.90;;;;;;5089557;28;20425;-70
2023/05/10 01:07:55;;;;;;;1999.90;999.90;;;11.20;99.90;;;;;;5089378;28;20460;-72
2023/05/10 01:10:22;;;;;;;1999.90;999.90;;;11.10;99.90;;;;;;5087688;28;20578;-71
2023/05/10 01:12:48;;;;;;;1999.90;999.90;;;11.00;99.90;;;;;;5089215;28;20915;-68
2023/05/10 01:15:17;;;;;;;1999.90;999.90;;;11.00;99.90;;;;;;5089238;28;20822;-72
2023/05/10 01:17:45;;;;;;;1999.90;999.90;;;10.90;99.90;;;;;;5089123;28;20425;-72
2023/05/10 01:20:14;;;;;;;1999.90;999.90;;;11.00;99.90;;;;;;5087215;28;20438;-70
2023/05/10 01:22:52;;;;;;;1999.90;999.90;;;10.90;99.90;;;;;;5089273;28;20488;-72
2023/05/10 01:25:44;;;;;;;1999.90;999.90;;;10.90;99.90;;;;;;5089337;28;20475;-69
2023/05/10 01:28:59;;;;;;;1999.90;999.90;;;10.90;99.90;;;;;;5083934;28;20495;-70
2023/05/10 01:31:51;;;;;;;1999.90;999.90;;;10.70;99.90;;;;;;5041488;28;20437;-71
2023/05/10 01:34:24;;;;;;;1999.90;999.90;;;10.80;99.90;;;;;;5043519;28;20429;-72
2023/05/10 01:36:55;;;;;;;1999.90;999.90;;;10.90;99.90;;;;;;5072191;28;20426;-72
2023/05/10 01:39:28;;;;;;;1999.90;999.90;;;10.90;99.90;;;;;;5088770;28;20521;-74
2023/05/10 01:41:58;;;;;;;1999.90;999.90;;;10.90;99.90;;;;;;5085780;28;20487;-73
2023/05/10 01:44:32;;;;;;;1999.90;999.90;;;10.90;99.90;;;;;;5088576;28;20433;-73
2023/05/10 01:47:06;;;;;;;1999.90;999.90;;;10.90;99.90;;;;;;5085225;28;20433;-73
2023/05/10 01:49:37;;;;;;;1999.90;999.90;;;10.90;99.90;;;;;;5088572;28;20938;-70
2023/05/10 01:52:09;;;;;;;1999.90;999.90;;;10.90;99.90;;;;;;5087603;28;20426;-73
2023/05/10 01:54:39;;;;;;;1999.90;999.90;;;11.00;99.90;;;;;;5088587;28;20483;-73
2023/05/10 01:57:09;;;;;;;1999.90;999.90;;;11.10;99.90;;;;;;5085385;28;20425;-73
2023/05/10 01:59:40;;;;;;;1999.90;999.90;;;11.10;99.90;;;;;;5088821;28;20509;-72
2023/05/10 02:02:11;;;;;;;1999.90;999.90;;;11.10;99.90;;;;;;5087640;28;20509;-73
2023/05/10 02:04:39;;;;;;;1999.90;999.90;;;11.00;99.90;;;;;;5087455;28;20429;-73
2023/05/10 02:07:07;;;;;;;1999.90;999.90;;;11.00;99.90;;;;;;5088538;28;20425;-73
2023/05/10 02:09:35;;;;;;;1999.90;999.90;;;10.90;99.90;;;;;;5087859;28;20430;-73
2023/05/10 02:12:05;;;;;;;1999.90;999.90;;;11.00;99.90;;;;;;5087235;28;20433;-72
2023/05/10 02:14:35;;;;;;;1999.90;999.90;;;11.00;99.90;;;;;;5087187;28;20957;-72
2023/05/10 02:17:04;;;;;;;1999.90;999.90;;;11.00;99.90;;;;;;5087838;28;20491;-73
2023/05/10 02:19:33;;;;;;;1999.90;999.90;;;11.00;99.90;;;;;;5087877;28;20997;-73
2023/05/10 02:22:02;;;;;;;1999.90;999.90;;;11.00;99.90;;;;;;5086292;28;20426;-73
2023/05/10 02:24:29;;;;;;;1999.90;999.90;;;11.00;99.90;;;;;;5088046;28;20990;-72
2023/05/10 02:26:58;;;;;;;1999.90;999.90;;;10.90;99.90;;;;;;5088507;28;20491;-73
2023/05/10 02:29:27;;;;;;;1999.90;999.90;;;10.90;99.90;;;;;;5086662;28;20430;-73
2023/05/10 02:31:56;;;;;;;1999.90;999.90;;;10.80;99.90;;;;;;5086336;28;20449;-73
2023/05/10 02:34:26;;;;;;;1999.90;999.90;;;10.90;99.90;;;;;;5087055;28;20479;-72
2023/05/10 02:36:54;;;;;;;1999.90;999.90;;;10.80;99.90;;;;;;5085733;28;20430;-72
2023/05/10 02:39:22;;;;;;;1999.90;999.90;;;10.90;99.90;;;;;;5087054;28;20430;-72
2023/05/10 02:41:51;;;;;;;1999.90;999.90;;;10.90;99.90;;;;;;5086942;28;20433;-72
2023/05/10 02:44:20;;;;;;;1999.90;999.90;;;10.90;99.90;;;;;;5087929;28;20425;-71
2023/05/10 02:46:47;;;;;;;1999.90;999.90;;;10.90;99.90;;;;;;5086813;28;20440;-71
2023/05/10 02:49:14;;;;;;;1999.90;999.90;;;10.80;99.90;;;;;;5087749;28;20426;-72
2023/05/10 02:51:44;;;;;;;1999.90;999.90;;;10.70;99.90;;;;;;5086878;28;20500;-72
2023/05/10 02:54:16;;;;;;;1999.90;999.90;;;10.70;99.90;;;;;;5090336;28;20422;-72
2023/05/10 02:56:47;;;;;;;1999.90;999.90;;;10.70;99.90;;;;;;5091177;28;20911;-72
2023/05/10 02:59:14;;;;;;;1999.90;999.90;;;10.70;99.90;;;;;;5091679;28;20984;-72
2023/05/10 03:01:41;;;;;;;1999.90;999.90;;;10.60;99.90;;;;;;5090398;28;20425;-72
2023/05/10 03:04:08;;;;;;;1999.90;999.90;;;10.50;99.90;;;;;;5089667;28;20965;-72
2023/05/10 03:06:35;;;;;;;1999.90;999.90;;;10.50;99.90;;;;;;5090713;28;20437;-72
2023/05/10 03:09:03;;;;;;;1999.90;999.90;;;10.50;99.90;;;;;;5091464;28;20434;-71
2023/05/10 03:11:44;;;;;;;1999.90;999.90;;;10.50;99.90;;;;;;5090584;28;20430;-69
2023/05/10 03:14:24;;;;;;;1999.90;999.90;;;10.50;99.90;;;;;;5085776;28;20433;-70
2023/05/10 03:16:58;;;;;;;1999.90;999.90;;;10.50;99.90;;;;;;5088101;28;20903;-68
2023/05/10 03:19:31;;;;;;;1999.90;999.90;;;10.60;99.90;;;;;;5089597;28;20429;-70
2023/05/10 03:22:04;;;;;;;1999.90;999.90;;;10.70;99.90;;;;;;5084212;28;20542;-67
2023/05/10 03:24:32;;;;;;;1999.90;999.90;;;10.60;99.90;;;;;;5091187;28;20457;-70
2023/05/10 03:27:02;;;;;;;1999.90;999.90;;;10.70;99.90;;;;;;5089699;28;20488;-70
2023/05/10 03:29:30;;;;;;;1999.90;999.90;;;10.70;99.90;;;;;;5088158;28;20500;-72
2023/05/10 03:31:58;;;;;;;1999.90;999.90;;;10.70;99.90;;;;;;5090097;28;20509;-72
2023/05/10 03:34:25;;;;;;;1999.90;999.90;;;10.80;99.90;;;;;;5090147;28;20438;-72
2023/05/10 03:36:52;;;;;;;1999.90;999.90;;;10.80;99.90;;;;;;5082330;28;20477;-71
2023/05/10 03:39:19;;;;;;;1999.90;999.90;;;10.80;99.90;;;;;;5091325;28;20475;-71
2023/05/10 03:41:45;;;;;;;1999.90;999.90;;;10.80;99.90;;;;;;5090522;28;20425;-71
2023/05/10 03:44:13;;;;;;;1999.90;999.90;;;10.90;99.90;;;;;;5090375;28;20433;-71
2023/05/10 03:46:40;;;;;;;1999.90;999.90;;;10.90;99.90;;;;;;5089870;28;20912;-71
2023/05/10 03:49:06;;;;;;;1999.90;999.90;;;11.00;99.90;;;;;;5089843;28;20425;-71
2023/05/10 03:51:33;;;;;;;1999.90;999.90;;;11.00;99.90;;;;;;5090953;28;20429;-71
2023/05/10 03:54:00;;;;;;;1999.90;999.90;;;11.00;99.90;;;;;;5090388;28;20434;-70
2023/05/10 03:56:26;;;;;;;1999.90;999.90;;;11.00;99.90;;;;;;5091453;28;20912;-71
2023/05/10 03:58:53;;;;;;;1999.90;999.90;;;11.10;99.90;;;;;;5088421;28;20432;-70
2023/05/10 04:01:21;;;;;;;1999.90;999.90;;;11.10;99.90;;;;;;5091611;28;20982;-70
2023/05/10 04:03:48;;;;;;;1999.90;999.90;;;11.20;99.90;;;;;;5089828;28;20984;-70
2023/05/10 04:06:14;;;;;;;1999.90;999.90;;;11.30;99.90;;;;;;5090068;28;20445;-71
2023/05/10 04:08:41;;;;;;;1999.90;999.90;;;11.30;99.90;;;;;;5090100;28;20467;-70
2023/05/10 04:11:08;;;;;;;1999.90;999.90;;;11.30;99.90;;;;;;5089429;28;20503;-71
2023/05/10 04:13:35;;;;;;;1999.90;999.90;;;11.50;99.90;;;;;;5088511;28;20439;-70
2023/05/10 04:16:01;;;;;;;1999.90;999.90;;;11.50;99.90;;;;;;5091558;28;20437;-71
2023/05/10 04:18:29;;;;;;;1999.90;999.90;;;11.50;99.90;;;;;;5089903;28;20425;-70
2023/05/10 04:20:56;;;;;;;1999.90;999.90;;;11.50;99.90;;;;;;5089436;28;20426;-70
2023/05/10 04:23:23;;;;;;;1999.90;999.90;;;11.50;99.90;;;;;;5091025;28;20426;-71
2023/05/10 04:25:49;;;;;;;1999.90;999.90;;;11.50;99.90;;;;;;5090998;28;20434;-70
2023/05/10 04:28:16;;;;;;;1999.90;999.90;;;11.50;99.90;;;;;;5091054;28;20447;-69
2023/05/10 04:30:43;;;;;;;1999.90;999.90;;;11.60;99.90;;;;;;5084692;28;20426;-70
2023/05/10 04:33:09;;;;;;;1999.90;999.90;;;11.70;99.90;;;;;;5086152;28;20483;-71
2023/05/10 04:35:38;;;;;;;1999.90;999.90;;;11.60;99.90;;;;;;5090576;28;20434;-70
2023/05/10 04:38:05;;;;;;;1999.90;999.90;;;11.50;99.90;;;;;;5090825;28;20432;-69
2023/05/10 04:40:32;;;;;;;1999.90;999.90;;;11.50;99.90;;;;;;5089711;28;20490;-70
2023/05/10 04:42:58;;;;;;;1999.90;999.90;;;11.50;99.90;;;;;;5085939;28;20429;-71
2023/05/10 04:45:25;;;;;;;1999.90;999.90;;;11.50;99.90;;;;;;5090768;28;20430;-70
2023/05/10 04:47:52;;;;;;;1999.90;999.90;;;11.60;99.90;;;;;;5087255;28;20422;-71
2023/05/10 04:50:18;;;;;;;1999.90;999.90;;;11.60;99.90;;;;;;5089087;28;20842;-70
2023/05/10 04:52:46;;;;;;;1999.90;999.90;;;11.80;99.90;;;;;;5090541;28;20529;-71
2023/05/10 04:55:13;;;;;;;1999.90;999.90;;;11.80;99.90;;;;;;5089079;28;20469;-71
2023/05/10 04:57:40;;;;;;;1999.90;999.90;;;11.90;99.90;;;;;;5090220;28;20453;-71
2023/05/10 05:00:08;;;;;;;1999.90;999.90;;;12.00;99.90;;;;;;5088392;28;20977;-71
2023/05/10 05:02:34;;;;;;;1999.90;999.90;;;12.00;99.90;;;;;;5087236;28;20930;-71
2023/05/10 05:05:01;;;;;;;1999.90;999.90;;;12.10;99.90;;;;;;5092511;22;21048;-72
2023/05/10 05:07:28;;;;;;;1999.90;999.90;;;12.10;99.90;;;;;;5048961;28;20455;-72
2023/05/10 05:09:55;;;;;;;1999.90;999.90;;;12.10;99.90;;;;;;5048540;28;20498;-73
2023/05/10 05:12:22;;;;;;;1999.90;999.90;;;12.10;99.90;;;;;;5049467;28;20487;-73
2023/05/10 05:14:49;;;;;;;1999.90;999.90;;;12.10;99.90;;;;;;5044870;28;20437;-73
2023/05/10 05:17:15;;;;;;;1999.90;999.90;;;12.10;99.90;;;;;;5041834;28;20429;-72
2023/05/10 05:19:42;;;;;;;1999.90;999.90;;;12.10;99.90;;;;;;5028485;28;20438;-73
2023/05/10 05:22:09;;;;;;;1999.90;999.90;;;12.20;99.90;;;;;;5027945;28;20481;-73
2023/05/10 05:24:37;;;;;;;1999.90;999.90;;;12.30;99.90;;;;;;5034376;28;20461;-74
2023/05/10 05:27:06;;;;;;;1999.90;999.90;;;12.50;99.90;;;;;;5038117;28;20432;-73
2023/05/10 05:29:33;;;;;;;1999.90;999.90;;;12.60;99.90;;;;;;5038455;28;20435;-73
2023/05/10 05:31:59;;;;;;;1999.90;999.90;;;12.70;99.90;;;;;;5035341;28;20496;-73
2023/05/10 05:34:26;;;;;;;1999.90;999.90;;;12.90;99.90;;;;;;5028926;28;20561;-73
2023/05/10 05:36:53;;;;;;;1999.90;999.90;;;13.00;99.90;;;;;;5031515;28;20436;-72
2023/05/10 05:39:20;;;;;;;1999.90;999.90;;;13.20;99.90;;;;;;5034283;28;20430;-73
2023/05/10 05:41:46;;;;;;;1999.90;999.90;;;13.30;99.90;;;;;;5033237;28;20445;-73
2023/05/10 05:44:14;;;;;;;1999.90;999.90;;;13.40;99.90;;;;;;5040447;28;20433;-73
2023/05/10 05:46:41;;;;;;;1999.90;999.90;;;13.60;99.90;;;;;;5027591;28;20434;-71
2023/05/10 05:49:08;;;;;;;1999.90;999.90;;;13.70;99.90;;;;;;5031736;28;20435;-71
2023/05/10 05:51:35;;;;;;;1999.90;999.90;;;13.80;99.90;;;;;;5034148;28;20458;-71
2023/05/10 05:54:04;;;;;;;1999.90;999.90;;;14.00;99.90;;;;;;5037736;28;20948;-70
2023/05/10 05:56:30;;;;;;;1999.90;999.90;;;14.30;99.90;;;;;;5040325;28;20425;-69
2023/05/10 05:58:57;;;;;;;1999.90;999.90;;;14.50;99.90;;;;;;5035332;28;20489;-70
2023/05/10 06:01:25;;;;;;;1999.90;999.90;;;14.60;99.90;;;;;;5029916;28;20430;-70
2023/05/10 06:03:52;;;;;;;1999.90;999.90;;;14.70;99.90;;;;;;5017214;28;20433;-70
2023/05/10 06:06:18;;;;;;;1999.90;999.90;;;14.70;99.90;;;;;;5032418;28;20439;-72
2023/05/10 06:08:45;;;;;;;1999.90;999.90;;;14.80;99.90;;;;;;5041018;28;20537;-71
2023/05/10 06:11:11;;;;;;;1999.90;999.90;;;14.80;99.90;;;;;;5040208;28;20431;-72
2023/05/10 06:13:38;;;;;;;1999.90;999.90;;;14.90;99.90;;;;;;5030048;28;20860;-71
2023/05/10 06:16:05;;;;;;;1999.90;999.90;;;15.10;99.90;;;;;;5033884;28;20760;-71
2023/05/10 06:18:34;;;;;;;1999.90;999.90;;;15.20;99.90;;;;;;5038632;28;20433;-71
2023/05/10 06:21:00;;;;;;;1999.90;999.90;;;15.30;99.90;;;;;;5043586;28;20437;-71
2023/05/10 06:23:27;;;;;;;1999.90;999.90;;;15.40;99.90;;;;;;5031399;28;20508;-68
2023/05/10 06:25:54;;;;;;;1999.90;999.90;;;15.30;99.90;;;;;;5028130;28;20437;-70
2023/05/10 06:28:21;;;;;;;1999.90;999.90;;;15.20;99.90;;;;;;5037715;28;20434;-71
2023/05/10 06:30:47;;;;;;;1999.90;999.90;;;15.00;99.90;;;;;;5048449;28;20498;-70
2023/05/10 06:33:15;;;;;;;1999.90;999.90;;;14.80;99.90;;;;;;5041630;28;20435;-71
2023/05/10 06:35:43;;;;;;;1999.90;999.90;;;14.80;99.90;;;;;;5040326;28;20508;-71
2023/05/10 06:38:10;;;;;;;1999.90;999.90;;;14.70;99.90;;;;;;5031268;28;20435;-71
2023/05/10 06:40:37;;;;;;;1999.90;999.90;;;14.60;99.90;;;;;;5035911;28;20524;-70
2023/05/10 06:43:04;;;;;;;1999.90;999.90;;;14.80;99.90;;;;;;5046175;28;20500;-71
2023/05/10 06:45:30;;;;;;;1999.90;999.90;;;15.00;99.90;;;;;;5045137;28;20959;-71
2023/05/10 06:47:57;;;;;;;1999.90;999.90;;;15.10;99.90;;;;;;5037273;28;20472;-70
2023/05/10 06:50:24;;;;;;;1999.90;999.90;;;15.20;99.90;;;;;;5034535;28;20484;-70
2023/05/10 06:52:52;;;;;;;1999.90;999.90;;;15.30;99.90;;;;;;5039280;28;20484;-71
2023/05/10 06:55:18;;;;;;;1999.90;999.90;;;15.40;99.90;;;;;;5041258;28;20434;-70
2023/05/10 06:57:45;;;;;;;1999.90;999.90;;;15.40;99.90;;;;;;5035448;28;20423;-70
2023/05/10 07:00:12;;;;;;;1999.90;999.90;;;15.40;99.90;;;;;;5044112;28;20423;-69
2023/05/10 07:02:39;;;;;;;1999.90;999.90;;;15.40;99.90;;;;;;5054092;28;20413;-71
2023/05/10 07:05:06;;;;;;;1999.90;999.90;;;15.50;99.90;;;;;;5056214;28;20421;-71
2023/05/10 07:07:33;;;;;;;1999.90;999.90;;;15.50;99.90;;;;;;5056402;28;20499;-69
2023/05/10 07:10:01;;;;;;;1999.90;999.90;;;15.60;99.90;;;;;;5056540;28;20460;-71
2023/05/10 07:12:28;;;;;;;1999.90;999.90;;;15.70;99.90;;;;;;5053764;28;20842;-71
2023/05/10 07:14:54;;;;;;;1999.90;999.90;;;15.90;99.90;;;;;;5047930;28;20417;-70
2023/05/10 07:17:21;;;;;;;1999.90;999.90;;;15.80;99.90;;;;;;5056372;28;20416;-70
2023/05/10 07:19:48;;;;;;;1999.90;999.90;;;15.70;99.90;;;;;;5056432;28;20421;-70
2023/05/10 07:22:15;;;;;;;1999.90;999.90;;;15.90;99.90;;;;;;5056715;28;20511;-69
2023/05/10 07:24:41;;;;;;;1999.90;999.90;;;15.90;99.90;;;;;;5051789;28;20446;-70
2023/05/10 07:27:10;;;;;;;1999.90;999.90;;;15.90;99.90;;;;;;5041633;28;20494;-71
2023/05/10 07:29:37;;;;;;;1999.90;999.90;;;16.00;99.90;;;;;;5047793;28;20433;-71
2023/05/10 07:32:03;;;;;;;1999.90;999.90;;;16.10;99.90;;;;;;5056242;28;20449;-71
2023/05/10 07:34:31;;;;;;;1999.90;999.90;;;16.20;99.90;;;;;;5056153;28;20413;-70
2023/05/10 07:37:00;;;;;;;1999.90;999.90;;;16.00;99.90;;;;;;5050936;28;20847;-71
2023/05/10 07:39:27;;;;;;;1999.90;999.90;;;16.00;99.90;;;;;;5042366;28;20435;-70
2023/05/10 07:41:53;;;;;;;1999.90;999.90;;;15.90;99.90;;;;;;5040375;28;20435;-71
2023/05/10 07:44:21;;;;;;;1999.90;999.90;;;15.70;99.90;;;;;;5048236;28;20417;-71
2023/05/10 07:46:48;;;;;;;1999.90;999.90;;;15.80;99.90;;;;;;5053043;28;20467;-70
2023/05/10 07:49:15;;;;;;;1999.90;999.90;;;15.90;99.90;;;;;;5045062;28;20501;-70
2023/05/10 07:51:42;;;;;;;1999.90;999.90;;;15.90;99.90;;;;;;5043160;28;20415;-70
2023/05/10 07:54:08;;;;;;;1999.90;999.90;;;16.00;99.90;;;;;;5052494;28;20892;-70
2023/05/10 07:56:35;;;;;;;1999.90;999.90;;;16.00;99.90;;;;;;5052859;28;20417;-71
2023/05/10 07:59:03;;;;;;;1999.90;999.90;;;15.80;99.90;;;;;;5052469;28;20405;-68
2023/05/10 08:01:33;;;;;;;1999.90;999.90;;;15.50;99.90;;;;;;5043197;28;20447;-71
2023/05/10 08:03:59;;;;;;;1999.90;999.90;;;15.20;99.90;;;;;;5043971;28;20414;-70
2023/05/10 08:06:27;;;;;;;1999.90;999.90;;;14.90;99.90;;;;;;5052852;28;20417;-70
2023/05/10 08:08:55;;;;;;;1999.90;999.90;;;14.70;99.90;;;;;;5052414;28;20429;-71
2023/05/10 08:11:22;;;;;;;1999.90;999.90;;;14.60;99.90;;;;;;5052428;28;20413;-71
2023/05/10 08:13:49;;;;;;;1999.90;999.90;;;14.80;99.90;;;;;;5045698;28;21008;-68
2023/05/10 08:16:16;;;;;;;1999.90;999.90;;;14.90;99.90;;;;;;5040194;28;20933;-69
2023/05/10 08:18:46;;;;;;;1999.90;999.90;;;15.10;99.90;;;;;;5051017;28;20400;-70
2023/05/10 08:21:13;;;;;;;1999.90;999.90;;;15.30;99.90;;;;;;5052297;28;20422;-68
2023/05/10 08:23:40;;;;;;;1999.90;999.90;;;15.30;99.90;;;;;;5046581;28;20434;-71
2023/05/10 08:26:07;;;;;;;1999.90;999.90;;;15.40;99.90;;;;;;5043607;28;20465;-70
2023/05/10 08:28:34;;;;;;;1999.90;999.90;;;15.10;99.90;;;;;;5052230;28;20425;-68
2023/05/10 08:31:00;;;;;;;1999.90;999.90;;;14.90;99.90;;;;;;5052229;28;20496;-71
2023/05/10 08:33:27;;;;;;;1999.90;999.90;;;14.90;99.90;;;;;;5052220;28;20491;-71
2023/05/10 08:35:55;;;;;;;1999.90;999.90;;;15.00;99.90;;;;;;5047326;28;20433;-70
2023/05/10 08:38:22;;;;;;;1999.90;999.90;;;15.10;99.90;;;;;;5039682;28;20423;-70
2023/05/10 08:40:50;;;;;;;1999.90;999.90;;;15.40;99.90;;;;;;5051535;28;20417;-71
2023/05/10 08:43:17;;;;;;;1999.90;999.90;;;15.60;99.90;;;;;;5052027;28;20511;-69
2023/05/10 08:45:46;;;;;;;1999.90;999.90;;;15.70;99.90;;;;;;5047714;28;20514;-71
2023/05/10 08:48:13;;;;;;;1999.90;999.90;;;15.80;99.90;;;;;;5043236;28;20432;-70
2023/05/10 08:50:40;;;;;;;1999.90;999.90;;;15.90;99.90;;;;;;5051283;28;20413;-70
2023/05/10 08:53:11;;;;;;;1999.90;999.90;;;16.00;99.90;;;;;;5051650;28;20405;-71
2023/05/10 08:55:39;;;;;;;1999.90;999.90;;;16.50;99.90;;;;;;5051687;28;20409;-73
2023/05/10 08:58:06;;;;;;;1999.90;999.90;;;16.50;99.90;;;;;;5045520;28;20517;-73
2023/05/10 09:00:33;;;;;;;1999.90;999.90;;;16.50;99.90;;;;;;5043285;28;20413;-74
2023/05/10 09:03:01;;;;;;;1999.90;999.90;;;16.80;99.90;;;;;;5051545;28;20467;-74
2023/05/10 09:05:28;;;;;;;1999.90;999.90;;;17.10;99.90;;;;;;5051093;28;20761;-73
2023/05/10 09:07:55;;;;;;;1999.90;999.90;;;17.20;99.90;;;;;;5051121;28;20949;-74
2023/05/10 09:10:25;;;;;;;1999.90;999.90;;;17.00;99.90;;;;;;5045837;28;20854;-73
2023/05/10 09:12:52;;;;;;;1999.90;999.90;;;16.90;99.90;;;;;;5035043;28;20425;-73
2023/05/10 09:15:20;;;;;;;1999.90;999.90;;;16.90;99.90;;;;;;5051191;28;20466;-73
2023/05/10 09:17:48;;;;;;;1999.90;999.90;;;16.80;99.90;;;;;;5051145;28;20421;-73
2023/05/10 09:20:14;;;;;;;1999.90;999.90;;;16.90;99.90;;;;;;5049893;28;20406;-73
2023/05/10 09:22:41;;;;;;;1999.90;999.90;;;17.10;99.90;;;;;;5039363;28;20436;-74
2023/05/10 09:25:09;;;;;;;1999.90;999.90;;;16.90;99.90;;;;;;5050794;28;20421;-74
2023/05/10 09:27:38;;;;;;;1999.90;999.90;;;16.80;99.90;;;;;;5047592;28;20413;-73
2023/05/10 09:30:06;;;;;;;1999.90;999.90;;;16.60;99.90;;;;;;5027948;28;20489;-73
2023/05/10 09:32:40;;;;;;;1999.90;999.90;;;16.40;99.90;;;;;;5034603;28;20435;-74
2023/05/10 09:35:08;;;;;;;1999.90;999.90;;;16.60;99.90;;;;;;5031719;28;20483;-71
2023/05/10 09:37:35;;;;;;;1999.90;999.90;;;16.90;99.90;;;;;;5031375;28;20427;-73
2023/05/10 09:40:04;;;;;;;1999.90;999.90;;;16.70;99.90;;;;;;5032777;28;20494;-73
2023/05/10 09:42:31;;;;;;;1999.90;999.90;;;16.80;99.90;;;;;;5027300;28;20483;-73
2023/05/10 09:45:03;;;;;;;1999.90;999.90;;;17.00;99.90;;;;;;5031180;28;20438;-70
2023/05/10 09:47:30;;;;;;;1999.90;999.90;;;16.70;99.90;;;;;;5030969;28;20925;-70
2023/05/10 09:50:02;;;;;;;1999.90;999.90;;;16.40;99.90;;;;;;5042334;28;20935;-70
2023/05/10 09:52:29;;;;;;;1999.90;999.90;;;16.20;99.90;;;;;;5034004;28;20917;-69
2023/05/10 09:54:56;;;;;;;1999.90;999.90;;;16.10;99.90;;;;;;5042392;28;20413;-70
2023/05/10 09:57:24;;;;;;;1999.90;999.90;;;16.00;99.90;;;;;;5050347;28;20425;-70
2023/05/10 09:59:54;;;;;;;1999.90;999.90;;;15.90;99.90;;;;;;5050372;28;20417;-71
2023/05/10 10:02:22;;;;;;;1999.90;999.90;;;15.90;99.90;;;;;;5042308;28;20435;-71
2023/05/10 10:04:51;;;;;;;1999.90;999.90;;;15.90;99.90;;;;;;5040998;28;20496;-70
2023/05/10 10:07:25;;;;;;;1999.90;999.90;;;16.00;99.90;;;;;;5050502;28;20492;-69
2023/05/10 10:09:52;;;;;;;1999.90;999.90;;;16.00;99.90;;;;;;5050186;28;20425;-71
2023/05/10 10:12:20;;;;;;;1999.90;999.90;;;16.00;99.90;;;;;;5040706;28;21002;-71
2023/05/10 10:14:47;;;;;;;1999.90;999.90;;;16.10;99.90;;;;;;5036944;28;20415;-70
2023/05/10 10:17:14;;;;;;;1999.90;999.90;;;16.40;99.90;;;;;;5024028;28;21000;-70
2023/05/10 10:19:43;;;;;;;1999.90;999.90;;;16.40;99.90;;;;;;5038568;28;20415;-70
2023/05/10 10:22:11;;;;;;;1999.90;999.90;;;16.80;99.90;;;;;;5043888;28;20435;-71
2023/05/10 10:24:39;;;;;;;1999.90;999.90;;;16.50;99.90;;;;;;5037636;28;20433;-69
2023/05/10 10:27:16;;;;;;;1999.90;999.90;;;16.40;99.90;;;;;;5043712;28;20772;-70
2023/05/10 10:29:52;;;;;;;1999.90;999.90;;;16.40;99.90;;;;;;5050209;28;20429;-69
2023/05/10 10:32:26;;;;;;;1999.90;999.90;;;16.30;99.90;;;;;;5041927;28;20434;-68
2023/05/10 10:34:55;;;;;;;1999.90;999.90;;;16.30;99.90;;;;;;5027424;28;20436;-71
2023/05/10 10:37:22;;;;;;;1999.90;999.90;;;16.20;99.90;;;;;;5026265;28;20435;-70
2023/05/10 10:39:50;;;;;;;1999.90;999.90;;;16.30;99.90;;;;;;5036548;28;20427;-68
2023/05/10 10:42:46;;;;;;;1999.90;999.90;;;16.20;99.90;;;;;;5045176;28;20453;-70
2023/05/10 10:45:13;;;;;;;1999.90;999.90;;;16.20;99.90;;;;;;5039569;28;20884;-71
2023/05/10 10:47:40;;;;;;;1999.90;999.90;;;16.20;99.90;;;;;;5035912;28;20467;-71
2023/05/10 10:50:09;;;;;;;1999.90;999.90;;;16.20;99.90;;;;;;5032986;28;20430;-70
2023/05/10 10:52:37;;;;;;;1999.90;999.90;;;16.30;99.90;;;;;;5029489;28;20526;-71
2023/05/10 10:55:07;;;;;;;1999.90;999.90;;;16.40;99.90;;;;;;5029582;28;20459;-70
2023/05/10 10:57:44;;;;;;;1999.90;999.90;;;16.50;99.90;;;;;;5038504;28;20431;-70
2023/05/10 11:00:28;;;;;;;1999.90;999.90;;;16.60;99.90;;;;;;5037762;28;20500;-71
2023/05/10 11:02:58;;;;;;;1999.90;999.90;;;16.50;99.90;;;;;;5021651;28;20466;-68
2023/05/10 11:05:44;;;;;;;1999.90;999.90;;;16.60;99.90;;;;;;5061198;22;20460;-70
2023/05/10 11:08:13;;;;;;;1999.90;999.90;;;16.50;99.90;;;;;;5045162;28;20432;-70
2023/05/10 11:10:41;;;;;;;1999.90;999.90;;;16.50;99.90;;;;;;5046409;28;20430;-70
2023/05/10 11:13:09;;;;;;;1999.90;999.90;;;16.40;99.90;;;;;;5048801;28;20429;-72
2023/05/10 11:15:38;;;;;;;1999.90;999.90;;;16.30;99.90;;;;;;5045055;28;20470;-70
2023/05/10 11:18:21;;;;;;;1999.90;999.90;;;16.40;99.90;;;;;;5041195;28;20446;-71
2023/05/10 11:20:55;;;;;;;1999.90;999.90;;;16.40;99.90;;;;;;5049890;28;20418;-70
2023/05/10 11:23:22;;;;;;;1999.90;999.90;;;16.20;99.90;;;;;;5034145;28;20423;-72
2023/05/10 11:25:50;;;;;;;1999.90;999.90;;;16.10;99.90;;;;;;5034470;28;20461;-70
2023/05/10 11:28:19;;;;;;;1999.90;999.90;;;16.00;99.90;;;;;;5044443;28;20433;-70
2023/05/10 11:30:46;;;;;;;1999.90;999.90;;;15.90;99.90;;;;;;5050225;28;20432;-70
2023/05/10 11:33:17;;;;;;;1999.90;999.90;;;16.00;99.90;;;;;;5032531;28;21039;-69
2023/05/10 11:35:44;;;;;;;1999.90;999.90;;;16.00;99.90;;;;;;5040595;28;20923;-70
2023/05/10 11:38:13;;;;;;;1999.90;999.90;;;15.90;99.90;;;;;;5047303;28;20448;-71
2023/05/10 11:40:41;;;;;;;1999.90;999.90;;;15.60;99.90;;;;;;5053412;28;20899;-70
2023/05/10 11:43:09;;;;;;;1999.90;999.90;;;15.60;99.90;;;;;;5054147;28;20425;-71
2023/05/10 11:45:37;;;;;;;1999.90;999.90;;;15.80;99.90;;;;;;5042777;28;20500;-70
2023/05/10 11:48:04;;;;;;;1999.90;999.90;;;15.90;99.90;;;;;;5047069;28;20471;-68
2023/05/10 11:50:32;;;;;;;1999.90;999.90;;;16.10;99.90;;;;;;5061037;28;21280;-72
2023/05/10 11:52:59;;;;;;;1999.90;999.90;;;16.30;99.90;;;;;;5053571;28;20504;-70
2023/05/10 11:55:27;;;;;;;1999.90;999.90;;;16.50;99.90;;;;;;5053758;28;20503;-69
2023/05/10 11:57:54;;;;;;;1999.90;999.90;;;16.60;99.90;;;;;;5043560;28;20434;-70
2023/05/10 12:00:21;;;;;;;1999.90;999.90;;;16.70;99.90;;;;;;5038670;28;20427;-72
2023/05/10 12:02:49;;;;;;;1999.90;999.90;;;16.80;99.90;;;;;;5036709;28;20475;-71
2023/05/10 12:05:16;;;;;;;1999.90;999.90;;;16.90;99.90;;;;;;5030183;28;20430;-72